Main page
METAR-TAF:

METAR-TAF

Airports :

Huntsville Regional Airport

Huntsville, Texas, United States

latitude: 30-44-38N, longitude: 095-35-10W, elevation: 364 ft

Current weather observation

The report was made 38 minutes ago, at 03:53 UTC
Calm wind
Temperature 34°F
Humidity 86%
Pressure 30.28 in. Hg
Visibility: 10 miles
Clear sky

METAR: KUTS 210353Z AUTO 00000KT 10SM CLR 01/M01 A3028 RMK AO2 SLP256 T00111006

Time: 22:31 (04:31 UTC)

Forecast

The report was made 4 hours and 56 minutes ago, at 23:35 UTC
Forecast valid from 21 at 00 UTC to 21 at 24 UTC
Wind 3 mph from variable directions
Visibility: 6 miles
Clear sky
From 21 at 1500 UTC
Wind 6 mph from the Southeast
Visibility: 6 miles
Clear sky
From 21 at 1900 UTC
Wind 12 mph from the South/Southeast with gusts up to 20 mph
Visibility: 6 miles
Scattered clouds at a height of 25000 ft

TAF: KUTS 202335Z 2100/2124 VRB03KT P6SM SKC FM211500 13005KT P6SM SKC FM211900 16010G17KT P6SM SCT250

Weather observations and forecasts of more than 4000 airports (METAR and TAF reports).

The available stations are represented by yellow and red dots on the map.

Hover mouse over dot to see the name of the station.

Then click to see weather observations and forecasts.

To change the map : click on the green buttons with a black cross to zoom in, on the green button with a dash to zoom out, or on the green arrows for adjacent maps.


METAR-TAF: